createdAt,value
2019-03-09T00:00:52.418Z,7.50
2019-03-09T00:03:21.680Z,7.03
2019-03-09T00:05:50.760Z,7.70
2019-03-09T00:08:22.326Z,11.57
2019-03-09T00:10:51.561Z,8.53
2019-03-09T00:13:20.441Z,8.53
2019-03-09T00:15:49.428Z,8.80
2019-03-09T00:18:18.418Z,7.23
2019-03-09T00:20:47.621Z,7.53
2019-03-09T00:23:28.319Z,15.30
2019-03-09T00:26:12.917Z,7.60
2019-03-09T00:28:49.003Z,11.87
2019-03-09T00:31:26.309Z,7.17
2019-03-09T00:33:55.298Z,11.87
2019-03-09T00:36:24.337Z,10.97
2019-03-09T00:38:53.754Z,8.57
2019-03-09T00:41:24.164Z,9.13
2019-03-09T00:43:53.198Z,13.93
2019-03-09T00:46:41.357Z,13.47
2019-03-09T00:49:11.297Z,14.23
2019-03-09T00:51:40.545Z,13.67
2019-03-09T00:54:09.619Z,11.97
2019-03-09T00:56:38.579Z,11.17
2019-03-09T00:59:07.468Z,8.97
2019-03-09T01:01:38.754Z,10.13
2019-03-09T01:04:07.773Z,13.43
2019-03-09T01:06:36.686Z,10.23
2019-03-09T01:09:08.759Z,11.53
2019-03-09T01:11:39.829Z,11.53
2019-03-09T01:14:08.907Z,11.17
2019-03-09T01:16:38.483Z,19.23
2019-03-09T01:19:08.895Z,13.50
2019-03-09T01:21:41.121Z,10.10
2019-03-09T01:24:10.225Z,12.27
2019-03-09T01:26:40.105Z,13.47
2019-03-09T01:29:09.402Z,10.80
2019-03-09T01:31:38.346Z,11.67
2019-03-09T01:34:07.330Z,13.83
2019-03-09T01:36:36.589Z,13.10
2019-03-09T01:39:07.027Z,15.93
2019-03-09T01:41:36.073Z,9.93
2019-03-09T01:44:05.038Z,12.73
2019-03-09T01:46:39.313Z,15.20
2019-03-09T01:49:08.725Z,19.13
2019-03-09T01:51:37.676Z,17.97
2019-03-09T01:54:07.165Z,9.07
2019-03-09T01:57:00.573Z,15.13
2019-03-09T01:59:29.864Z,14.70
2019-03-09T02:01:59.605Z,15.17
2019-03-09T02:04:28.485Z,17.17
2019-03-09T02:06:57.870Z,18.27
2019-03-09T02:09:27.120Z,12.97
2019-03-09T02:11:57.178Z,17.10
2019-03-09T02:14:26.610Z,14.80
2019-03-09T02:16:56.101Z,14.63
2019-03-09T02:19:25.099Z,17.53
2019-03-09T02:21:54.077Z,15.20
2019-03-09T02:24:23.114Z,13.57
2019-03-09T02:26:52.342Z,15.70
2019-03-09T02:29:21.502Z,15.13
2019-03-09T02:31:50.486Z,13.27
2019-03-09T02:34:19.454Z,17.03
2019-03-09T02:36:48.625Z,14.00
2019-03-09T02:39:31.196Z,17.27
2019-03-09T02:42:04.107Z,11.80
2019-03-09T02:44:32.986Z,9.03
2019-03-09T02:47:02.191Z,11.93
2019-03-09T02:49:31.260Z,13.33
2019-03-09T02:52:00.257Z,12.10
2019-03-09T02:54:29.954Z,14.17
2019-03-09T02:56:59.049Z,11.07
2019-03-09T02:59:28.250Z,11.47
2019-03-09T03:02:19.049Z,14.67
2019-03-09T03:04:47.916Z,10.87
2019-03-09T03:07:17.916Z,14.83
2019-03-09T03:09:47.948Z,14.20
2019-03-09T03:12:19.426Z,11.73
2019-03-09T03:14:48.654Z,15.53
2019-03-09T03:17:18.027Z,14.00
2019-03-09T03:19:47.109Z,12.03
2019-03-09T03:22:16.851Z,13.40
2019-03-09T03:24:45.975Z,10.23
2019-03-09T03:27:15.931Z,13.57
2019-03-09T03:29:45.069Z,21.20
2019-03-09T03:32:14.352Z,12.37
2019-03-09T03:34:43.300Z,12.10
2019-03-09T03:37:14.154Z,16.70
2019-03-09T03:39:44.080Z,12.40
2019-03-09T03:42:13.363Z,12.17
2019-03-09T03:44:46.382Z,16.97
2019-03-09T03:47:16.761Z,13.23
2019-03-09T03:49:46.074Z,15.63
2019-03-09T03:52:16.903Z,11.53
2019-03-09T03:54:45.835Z,14.27
2019-03-09T03:57:14.812Z,13.83
2019-03-09T03:59:45.115Z,8.23
2019-03-09T04:02:14.406Z,11.57
2019-03-09T04:04:43.680Z,14.43
2019-03-09T04:07:12.902Z,14.70
2019-03-09T04:09:42.225Z,11.40
2019-03-09T04:12:11.507Z,12.30
2019-03-09T04:14:40.532Z,15.10
2019-03-09T04:17:10.051Z,12.67
2019-03-09T04:19:39.088Z,15.10
2019-03-09T04:22:08.441Z,13.33
2019-03-09T04:24:39.344Z,13.50
2019-03-09T04:27:09.132Z,14.13
2019-03-09T04:29:38.113Z,10.33
2019-03-09T04:32:07.143Z,13.60
2019-03-09T04:34:38.615Z,15.23
2019-03-09T04:37:07.906Z,11.73
2019-03-09T04:39:36.900Z,15.17
2019-03-09T04:42:05.797Z,10.50
2019-03-09T04:44:36.258Z,15.50
2019-03-09T04:47:05.316Z,12.83
2019-03-09T04:49:34.493Z,12.40
2019-03-09T04:52:03.457Z,14.77
2019-03-09T04:54:32.522Z,13.93
2019-03-09T04:57:01.614Z,12.67
2019-03-09T04:59:30.597Z,16.10
2019-03-09T05:01:59.909Z,12.77
2019-03-09T05:04:51.616Z,17.50
2019-03-09T05:07:59.960Z,14.47
2019-03-09T05:10:32.725Z,14.53
2019-03-09T05:13:07.651Z,19.27
2019-03-09T05:15:36.683Z,17.03
2019-03-09T05:18:05.846Z,16.60
2019-03-09T05:20:34.786Z,16.67
2019-03-09T05:23:06.138Z,17.00
2019-03-09T05:25:35.074Z,13.73
2019-03-09T05:28:05.565Z,19.43
2019-03-09T05:30:38.446Z,16.50
2019-03-09T05:33:09.107Z,21.03
2019-03-09T05:35:38.124Z,24.63
2019-03-09T05:38:08.023Z,22.67
2019-03-09T05:40:37.070Z,19.50
2019-03-09T05:43:06.075Z,17.10
2019-03-09T05:45:35.061Z,18.97
2019-03-09T05:48:09.118Z,21.73
2019-03-09T05:50:38.042Z,19.83
2019-03-09T05:53:15.638Z,18.07
2019-03-09T05:55:44.592Z,17.60
2019-03-09T05:58:30.014Z,15.27
2019-03-09T06:01:10.147Z,16.13
2019-03-09T06:03:36.829Z,21.47
2019-03-09T06:06:08.454Z,12.83
2019-03-09T06:08:40.997Z,10.70
2019-03-09T06:11:10.679Z,11.43
2019-03-09T06:13:39.553Z,8.83
2019-03-09T06:16:09.400Z,10.50
2019-03-09T06:18:38.657Z,8.87
2019-03-09T06:21:07.600Z,10.10
2019-03-09T06:23:36.703Z,5.20
2019-03-09T06:26:06.021Z,6.70
2019-03-09T06:28:35.273Z,7.80
2019-03-09T06:31:04.294Z,7.43
2019-03-09T06:33:34.576Z,8.40
2019-03-09T06:36:31.057Z,8.43
2019-03-09T06:39:08.137Z,8.80
2019-03-09T06:41:47.209Z,7.03
2019-03-09T06:44:16.793Z,9.97
2019-03-09T06:46:51.566Z,7.87
2019-03-09T06:49:20.429Z,8.53
2019-03-09T06:51:49.305Z,11.60
2019-03-09T06:54:23.931Z,10.43
2019-03-09T06:56:52.913Z,10.90
2019-03-09T06:59:21.860Z,13.67
2019-03-09T07:01:50.834Z,11.30
2019-03-09T07:04:19.848Z,8.03
2019-03-09T07:06:48.761Z,10.07
2019-03-09T07:09:17.908Z,9.17
2019-03-09T07:11:48.939Z,10.37
2019-03-09T07:14:53.340Z,10.97
2019-03-09T07:17:22.308Z,10.10
2019-03-09T07:19:51.164Z,8.63
2019-03-09T07:22:20.050Z,7.90
2019-03-09T07:24:48.905Z,8.63
2019-03-09T07:27:18.122Z,8.00
2019-03-09T07:29:47.096Z,7.10
2019-03-09T07:32:15.941Z,5.07
2019-03-09T07:34:44.831Z,4.87
2019-03-09T07:37:13.931Z,3.93
2019-03-09T07:39:43.164Z,4.67
2019-03-09T07:42:12.171Z,4.23
2019-03-09T07:44:41.489Z,4.90
2019-03-09T07:47:10.618Z,5.77
2019-03-09T07:49:39.644Z,6.60
2019-03-09T07:52:32.044Z,4.03
2019-03-09T07:55:01.056Z,7.20
2019-03-09T07:57:30.475Z,4.97
2019-03-09T07:59:59.434Z,6.80
2019-03-09T08:02:28.495Z,7.00
2019-03-09T08:04:57.978Z,4.30
2019-03-09T08:07:26.913Z,7.67
2019-03-09T08:10:06.130Z,8.10
2019-03-09T08:12:35.089Z,7.17
2019-03-09T08:15:04.533Z,7.67
2019-03-09T08:17:35.794Z,9.03
2019-03-09T08:20:05.888Z,8.83
2019-03-09T08:22:35.084Z,9.23
2019-03-09T08:25:04.668Z,10.40
2019-03-09T08:27:35.628Z,7.50
2019-03-09T08:30:06.165Z,10.73
2019-03-09T08:32:35.440Z,13.37
2019-03-09T08:35:06.318Z,11.50
2019-03-09T08:37:49.242Z,13.30
2019-03-09T08:40:30.677Z,8.70
2019-03-09T08:42:59.682Z,9.30
2019-03-09T08:45:31.477Z,11.03
2019-03-09T08:48:00.374Z,8.67
2019-03-09T08:50:29.330Z,9.33
2019-03-09T08:52:58.248Z,7.57
2019-03-09T08:55:27.297Z,6.83
2019-03-09T08:57:56.423Z,7.00
2019-03-09T09:00:31.572Z,9.00
2019-03-09T09:03:01.072Z,7.97
2019-03-09T09:05:30.186Z,8.87
2019-03-09T09:07:59.129Z,8.53
2019-03-09T09:10:28.372Z,10.00
2019-03-09T09:12:57.481Z,8.10
2019-03-09T09:15:28.606Z,8.90
2019-03-09T09:17:59.764Z,7.80
2019-03-09T09:20:28.638Z,8.83
2019-03-09T09:22:59.642Z,9.03
2019-03-09T09:25:28.960Z,8.77
2019-03-09T09:27:58.238Z,8.33
2019-03-09T09:30:27.468Z,7.90
2019-03-09T09:32:58.898Z,8.53
2019-03-09T09:35:27.999Z,11.23
2019-03-09T09:37:57.733Z,11.53
2019-03-09T09:40:27.455Z,11.20
2019-03-09T09:42:56.894Z,11.67
2019-03-09T09:45:27.222Z,11.33
2019-03-09T09:48:01.585Z,10.37
2019-03-09T09:50:30.537Z,10.60
2019-03-09T09:53:00.086Z,8.03
2019-03-09T09:55:30.267Z,14.47
2019-03-09T09:57:59.540Z,15.40
2019-03-09T10:00:30.074Z,9.77
2019-03-09T10:03:00.816Z,8.37
2019-03-09T10:05:29.837Z,7.53
2019-03-09T10:07:58.983Z,9.87
2019-03-09T10:10:29.921Z,11.73
2019-03-09T10:12:59.155Z,9.93
2019-03-09T10:15:30.298Z,15.33
2019-03-09T10:17:59.496Z,12.37
2019-03-09T10:20:28.549Z,15.67
2019-03-09T10:23:04.164Z,13.43
2019-03-09T10:25:29.800Z,11.43
2019-03-09T10:28:14.102Z,8.37
2019-03-09T10:30:46.293Z,9.37
2019-03-09T10:33:15.618Z,11.70
2019-03-09T10:35:45.211Z,8.77
2019-03-09T10:38:14.125Z,10.87
2019-03-09T10:40:43.073Z,11.97
2019-03-09T10:43:13.504Z,6.57
2019-03-09T10:45:42.936Z,8.17
2019-03-09T10:48:11.914Z,7.97
2019-03-09T10:50:40.784Z,7.23
2019-03-09T10:53:09.758Z,7.50
2019-03-09T10:55:42.432Z,7.87
2019-03-09T10:58:10.950Z,8.30
2019-03-09T11:00:40.077Z,8.93
2019-03-09T11:03:09.376Z,7.17
2019-03-09T11:05:39.657Z,7.87
2019-03-09T11:08:09.244Z,8.13
2019-03-09T11:10:40.782Z,6.67
2019-03-09T11:13:09.846Z,7.30
2019-03-09T11:15:40.232Z,9.37
2019-03-09T11:18:10.992Z,8.60
2019-03-09T11:20:41.662Z,8.27
2019-03-09T11:23:15.943Z,8.43
2019-03-09T11:28:56.333Z,8.30
2019-03-09T11:31:35.975Z,11.53
2019-03-09T11:34:28.941Z,11.87
2019-03-09T11:37:22.728Z,10.30
2019-03-09T11:39:59.021Z,12.33
2019-03-09T11:42:36.425Z,13.33
2019-03-09T11:45:11.356Z,7.93
2019-03-09T11:47:59.517Z,13.03
2019-03-09T11:50:32.721Z,13.13
2019-03-09T11:53:07.031Z,12.53
2019-03-09T11:56:04.781Z,9.00
2019-03-09T11:59:18.958Z,11.90
2019-03-09T12:02:39.094Z,10.17
2019-03-09T12:12:49.942Z,13.53
2019-03-09T12:34:13.629Z,10.53
2019-03-09T12:37:08.326Z,6.83
2019-03-09T12:43:43.487Z,7.60
2019-03-09T12:56:19.245Z,14.33
2019-03-09T12:58:59.515Z,10.27
2019-03-09T13:09:11.787Z,14.53
2019-03-09T13:30:54.674Z,6.97
2019-03-09T13:45:46.373Z,11.87
2019-03-09T13:48:40.012Z,7.53
2019-03-09T13:51:54.109Z,8.73
2019-03-09T14:02:21.215Z,9.67
2019-03-09T14:05:55.270Z,6.80
2019-03-09T14:38:19.080Z,9.03
2019-03-09T14:41:10.121Z,10.50
2019-03-09T14:44:00.321Z,7.77
2019-03-09T14:46:41.372Z,11.13
2019-03-09T14:49:13.397Z,10.50
2019-03-09T14:51:45.020Z,13.17
2019-03-09T14:54:43.071Z,9.60
2019-03-09T15:00:19.273Z,7.90
2019-03-09T15:02:51.696Z,11.37
2019-03-09T15:05:24.081Z,9.60
2019-03-09T15:09:02.582Z,10.40
2019-03-09T15:11:39.392Z,12.27
2019-03-09T15:14:17.330Z,8.80
2019-03-09T15:17:27.078Z,16.40
2019-03-09T15:20:15.652Z,12.60
2019-03-09T15:23:11.212Z,8.43
2019-03-09T15:25:46.905Z,14.27
2019-03-09T15:28:51.194Z,13.90
2019-03-09T15:31:51.116Z,14.60
2019-03-09T15:35:27.960Z,10.07
2019-03-09T15:38:25.760Z,11.37
2019-03-09T15:44:34.196Z,13.70
2019-03-09T15:51:22.813Z,11.47
2019-03-09T15:54:34.830Z,10.30
2019-03-09T15:57:53.964Z,11.97
2019-03-09T16:00:41.939Z,11.53
2019-03-09T16:03:47.238Z,13.43
2019-03-09T16:06:44.834Z,10.60
2019-03-09T16:09:17.948Z,11.47
2019-03-09T16:12:07.916Z,11.07
2019-03-09T16:14:44.071Z,11.20
2019-03-09T16:17:21.283Z,12.17
2019-03-09T16:19:59.866Z,12.40
2019-03-09T16:22:56.572Z,10.37
2019-03-09T16:25:30.406Z,12.10
2019-03-09T16:28:12.225Z,9.33
2019-03-09T16:31:24.251Z,12.63
2019-03-09T16:34:01.995Z,9.87
2019-03-09T16:44:08.712Z,11.37
2019-03-09T16:50:02.521Z,13.00
2019-03-09T16:52:53.556Z,14.90
2019-03-09T16:59:10.945Z,14.97
2019-03-09T17:01:57.205Z,19.10
2019-03-09T17:04:42.281Z,13.80
2019-03-09T17:07:29.462Z,15.07
2019-03-09T17:10:00.419Z,15.77
2019-03-09T17:12:35.107Z,23.90
2019-03-09T17:15:39.441Z,17.10
2019-03-09T17:19:06.654Z,17.83
2019-03-09T17:21:46.086Z,15.60
2019-03-09T17:24:20.827Z,18.33
2019-03-09T17:27:16.629Z,16.87
2019-03-09T17:29:51.866Z,13.67
2019-03-09T17:32:54.598Z,14.07
2019-03-09T17:35:35.934Z,10.10
2019-03-09T17:38:38.534Z,13.23
2019-03-09T17:41:25.516Z,12.87
2019-03-09T17:43:57.654Z,13.50
2019-03-09T17:46:28.786Z,12.70
2019-03-09T17:49:09.003Z,10.00
2019-03-09T17:52:05.149Z,16.83
2019-03-09T17:54:57.853Z,15.87
2019-03-09T18:01:42.080Z,15.33
2019-03-09T18:04:39.795Z,15.03
2019-03-09T18:07:51.021Z,15.03
2019-03-09T18:10:27.793Z,16.57
2019-03-09T18:13:36.206Z,16.03
2019-03-09T18:16:11.803Z,12.93
2019-03-09T18:18:51.186Z,15.87
2019-03-09T18:21:27.061Z,11.17
2019-03-09T18:24:09.520Z,15.60
2019-03-09T18:26:46.502Z,13.57
2019-03-09T18:29:34.223Z,15.87
2019-03-09T18:32:38.296Z,13.53
2019-03-09T18:35:16.373Z,12.93
2019-03-09T18:38:02.030Z,12.70
2019-03-09T18:40:36.046Z,15.70
2019-03-09T18:46:37.708Z,12.97
2019-03-09T18:49:11.950Z,13.53
2019-03-09T18:51:51.422Z,15.53
2019-03-09T18:54:45.820Z,17.30
2019-03-09T19:00:32.274Z,10.50
2019-03-09T19:03:11.123Z,11.27
2019-03-09T19:06:21.248Z,13.10
2019-03-09T19:09:19.231Z,10.73
2019-03-09T19:11:48.865Z,15.33
2019-03-09T19:14:19.864Z,12.83
2019-03-09T19:16:58.931Z,18.77
2019-03-09T19:19:30.624Z,11.70
2019-03-09T19:22:30.699Z,13.73
2019-03-09T19:25:17.092Z,13.47
2019-03-09T19:27:57.216Z,9.60
2019-03-09T19:30:46.920Z,14.57
2019-03-09T19:33:19.257Z,12.00
2019-03-09T19:35:52.063Z,15.60
2019-03-09T19:38:30.764Z,11.63
2019-03-09T19:41:17.862Z,8.93
2019-03-09T19:43:48.906Z,12.00
2019-03-09T19:46:19.062Z,10.63
2019-03-09T19:48:57.268Z,10.97
2019-03-09T19:51:28.954Z,14.00
2019-03-09T19:54:02.865Z,11.43
2019-03-09T19:56:39.652Z,11.87
2019-03-09T20:07:36.388Z,15.47
2019-03-09T20:11:09.623Z,8.73
2019-03-09T20:20:23.845Z,13.60
2019-03-09T20:23:00.213Z,9.20
2019-03-09T20:28:48.921Z,13.10
2019-03-09T20:31:29.964Z,14.23
2019-03-09T20:34:01.362Z,14.00
2019-03-09T20:37:01.935Z,11.73
2019-03-09T20:40:02.543Z,11.57
2019-03-09T20:42:39.559Z,11.53
2019-03-09T20:45:17.798Z,12.40
2019-03-09T20:48:12.411Z,14.57
2019-03-09T20:51:29.346Z,12.23
2019-03-09T20:54:12.053Z,11.47
2019-03-09T20:57:00.287Z,11.17
2019-03-09T20:59:51.325Z,9.53
2019-03-09T21:02:47.442Z,9.10
2019-03-09T21:05:37.748Z,17.53
2019-03-09T21:08:47.626Z,12.93
2019-03-09T21:11:25.132Z,14.30
2019-03-09T21:14:35.999Z,15.90
2019-03-09T21:17:06.276Z,10.77
2019-03-09T21:19:58.943Z,10.20
2019-03-09T21:22:41.196Z,11.00
2019-03-09T21:25:17.129Z,13.80
2019-03-09T21:28:09.704Z,12.23
2019-03-09T21:31:04.359Z,12.83
2019-03-09T21:33:49.406Z,17.27
2019-03-09T21:36:20.186Z,11.67
2019-03-09T21:38:58.655Z,15.30
2019-03-09T21:41:36.149Z,12.20
2019-03-09T21:44:27.668Z,16.50
2019-03-09T21:46:57.982Z,9.60
2019-03-09T21:49:28.704Z,13.53
2019-03-09T21:51:58.195Z,10.90
2019-03-09T21:54:39.201Z,9.67
2019-03-09T21:57:16.044Z,10.30
2019-03-09T21:59:49.201Z,8.63
2019-03-09T22:02:19.690Z,12.13
2019-03-09T22:04:58.508Z,10.00
2019-03-09T22:08:13.222Z,8.00
2019-03-09T22:10:43.044Z,9.43
2019-03-09T22:13:15.130Z,11.13
2019-03-09T22:15:45.451Z,9.93
2019-03-09T22:18:28.277Z,10.40
2019-03-09T22:20:58.745Z,9.93
2019-03-09T22:23:30.428Z,7.63
2019-03-09T22:26:00.167Z,12.37
2019-03-09T22:29:18.145Z,7.37
2019-03-09T22:31:49.930Z,10.37
2019-03-09T22:34:23.531Z,5.67
2019-03-09T22:37:10.874Z,7.40
2019-03-09T22:39:40.398Z,11.00
2019-03-09T22:42:10.023Z,9.17
2019-03-09T22:44:39.227Z,9.80
2019-03-09T22:47:17.612Z,7.17
2019-03-09T22:49:49.996Z,8.73
2019-03-09T22:52:24.416Z,7.23
2019-03-09T22:54:54.675Z,7.60
2019-03-09T22:58:25.138Z,9.87
2019-03-09T23:00:58.187Z,12.60
2019-03-09T23:03:43.201Z,9.13
2019-03-09T23:06:15.299Z,10.90
2019-03-09T23:08:55.782Z,18.30
2019-03-09T23:11:28.217Z,10.37
2019-03-09T23:13:59.826Z,15.73
2019-03-09T23:16:32.057Z,8.00
2019-03-09T23:19:01.221Z,14.30
2019-03-09T23:21:30.418Z,11.97
2019-03-09T23:24:00.841Z,15.03
2019-03-09T23:26:38.841Z,15.90
2019-03-09T23:29:20.996Z,10.80
2019-03-09T23:31:59.449Z,13.27
2019-03-09T23:34:41.157Z,14.27
2019-03-09T23:37:50.257Z,15.00
2019-03-09T23:40:22.576Z,15.33
2019-03-09T23:43:09.013Z,15.23
2019-03-09T23:45:31.961Z,18.57
2019-03-09T23:48:01.877Z,13.17
2019-03-09T23:50:35.978Z,15.03
2019-03-09T23:53:07.953Z,16.83
2019-03-09T23:55:42.013Z,15.10
2019-03-09T23:58:16.935Z,15.77
